Terminal Aerodrome Forecast
Issued by NWS

Current Version | Previous Version | Text Only | Print | Product List | Glossary On
Versions: 1 2 3 4 5 6 7 8 9 10 11 12 13 14 15 16 17 18 19 20 21 22 23 24
000
FTUS41 KCTP 180915 AAA
TAFBFD
TAF AMD
KBFD 180915Z 1809/1906 15007KT P6SM OVC100 WS010/21035KT
     FM181030 16008KT P6SM -RA OVC050 WS010/21035KT
      TEMPO 1811/1812 5SM RA BKN025 OVC050
     FM181500 18009KT 4SM RA BR OVC005
     FM190000 18010G15KT 4SM -RA BR OVC003 WS020/21050KT=

USA.gov is the U.S. government's official web portal to all federal, state and local government web resources and services.